Terminal Aerodrome Forecast
Issued by NWS

Home | Current Version | Previous Version | Text Only | Print | Product List | Glossary On
Versions: 1 2 3 4 5 6 7 8 9 10 11 12 13 14 15 16 17 18 19 20 21 22 23 24 25 26 27 28 29 30 31 32 33 34 35 36 37
284
FTUS43 KLSX 271040 AAB
TAFUIN
TAF AMD
KUIN 271040Z 2711/2806 09016KT 2SM -RA BR VCTS OVC004CB
     FM271300 11016G22KT 5SM BR OVC006
     FM271700 13012KT P6SM BKN015
     FM272100 12009KT P6SM VCTS BKN035CB
     FM280000 09008KT P6SM BKN090=

USA.gov is the U.S. government's official web portal to all federal, state and local government web resources and services.